Traverse City

Airport
ICAO code: 
KTVC
Summary
ICAO Region: 
NAM
Territory: 
Location: 
Traverse City, Grand Traverse County, Michigan,
Coordinates: 
Aerial View: 
44° 44' 29.046" N, 85° 34' 55.917" W
Metar
Observation
KTVC 281732Z 31015G23KT 2 1/2SM -SN BR BKN015 BKN020 OVC050 02/M01 A2979 RMK AO2 SFC VIS 5 SNE01B30 P0000 T00221006 $
Station
Traverse City, Cherry Capital Airport
Date/Time
2021-11-28 17:32:00
Wind direction
310°
Wind speed
15 kts
Lowest cloud amount
broken clouds
Temperature
2.2°C
Dew point
-0.6°C
Humidity
81%
Weather condition
light

Description

Cherry Capital Airport is a public airport located 3 km south of the central business district of Traverse City, in Grand Traverse County, Michigan, United States.

Climatology

Humid Continental climate (Köppen climate classification Dfb) - Variable weather patterns and a large seasonal temperature variance. Summers are often warm and humid with frequent thunderstorms and winters can be very cold with frequent snowfall and persistent snow cover.

Runways

Designator Length Width Surface Rops
5/23 977 23 ASP No/No
18/36 1640 46 ASP Yes/Yes
10/28 1982 46 ASP Yes/Yes
Airport map: 
Aerial View: 

Accidents and Serious Incidents at or in the vicinity of KTVC

SKYbrary Partners:

Safety knowledge contributed by: